LERS/REU METAR and TAF weather

Enter ICAO airport designator
Station Type Date Time Source
LERS METAR 2020/01/20 19:00 UTC NOAA

LERS 201900Z 04022G34KT 9999 FEW050 11/02 Q1025


Station Type Date Time Source
LERS Decoded METAR 2020/01/20 19:00 UTC NOAA

Reus / Aeropuerto, Spain (LERS) 41-09N 001-10E 76M
Jan 20, 2020 - 02:00 PM EST / 2020.01.20 1900 UTC
Wind: from the NE (040 degrees) at 25 MPH (22 KT) gusting to 39 MPH (34 KT):0
Visibility: greater than 7 mile(s):0
Sky conditions: mostly clear
Temperature: 51 F (11 C)
Dew Point: 35 F (2 C)
Relative Humidity: 53%
Pressure (altimeter): 30.27 in. Hg (1025 hPa)
ob: LERS 201900Z 04022G34KT 9999 FEW050 11/02 Q1025
cycle: 19

Station Type Date Time Source
LERS TAF 2020/01/20 16:37 UTC NOAA

TAF
AMD LERS 201630Z 2016/2115 03020G38KT 9999 BKN035 TX13/2113Z TN06/2106Z
TEMPO 2016/2024 05026G43KT
TEMPO 2016/2115 4000 RA BKN018 FEW020CB
TEMPO 2100/2106 03012KT
TEMPO 2108/2115 05026G43KT

Example: see airport list